Terminal Aerodrome Forecast
Issued by NWS Sterling, VA

Current Version | Previous Version | Graphics & Text | Print | Product List | Glossary On
Versions: 1 2 3 4 5 6 7 8 9 10 11 12 13 14 15 16 17 18 19 20 21 22 23 24 25
229
FTUS41 KLWX 200141 AAA
TAFDCA
TAF AMD
KDCA 200141Z 2002/2106 17005KT P6SM SCT015 OVC045
      TEMPO 2002/2004 BKN008 OVC015
     FM200400 19010G18KT 5SM -DZ SCT003 BKN008
     FM201100 22010G18KT P6SM BKN008
     FM201300 25011G20KT P6SM BKN020
     FM201700 26010G19KT P6SM SCT035
     FM202200 29006KT P6SM SCT050=

USA.gov is the U.S. government's official web portal to all federal, state and local government web resources and services.